sensor_id;sensor_type;location;lat;lon;timestamp;temperature;humidity
6520;DHT22;3293;51.690;5.982;2022-12-16T00:00:10;-3.80;99.90
6520;DHT22;3293;51.690;5.982;2022-12-16T00:05:10;-3.70;99.90
6520;DHT22;3293;51.690;5.982;2022-12-16T00:10:10;-3.60;99.90
6520;DHT22;3293;51.690;5.982;2022-12-16T00:15:10;-3.50;99.90
6520;DHT22;3293;51.690;5.982;2022-12-16T00:20:11;-3.40;99.90
6520;DHT22;3293;51.690;5.982;2022-12-16T00:25:11;-3.30;99.90
6520;DHT22;3293;51.690;5.982;2022-12-16T00:30:11;-3.20;99.90
6520;DHT22;3293;51.690;5.982;2022-12-16T00:35:11;-3.10;99.90
6520;DHT22;3293;51.690;5.982;2022-12-16T00:40:11;-3.10;99.90
6520;DHT22;3293;51.690;5.982;2022-12-16T00:45:11;-2.90;99.90
6520;DHT22;3293;51.690;5.982;2022-12-16T00:50:11;-2.90;99.90
6520;DHT22;3293;51.690;5.982;2022-12-16T00:55:12;-2.80;99.90
6520;DHT22;3293;51.690;5.982;2022-12-16T01:00:13;-2.80;99.90
6520;DHT22;3293;51.690;5.982;2022-12-16T01:05:16;-2.70;99.90
6520;DHT22;3293;51.690;5.982;2022-12-16T01:10:17;-2.60;99.90
6520;DHT22;3293;51.690;5.982;2022-12-16T01:15:17;-2.60;99.90
6520;DHT22;3293;51.690;5.982;2022-12-16T01:20:17;-2.60;99.90
6520;DHT22;3293;51.690;5.982;2022-12-16T01:25:17;-2.50;99.90
6520;DHT22;3293;51.690;5.982;2022-12-16T01:30:17;-2.50;99.90
6520;DHT22;3293;51.690;5.982;2022-12-16T01:35:17;-2.50;99.90
6520;DHT22;3293;51.690;5.982;2022-12-16T01:40:20;-2.40;99.90
6520;DHT22;3293;51.690;5.982;2022-12-16T01:45:31;-2.30;99.90
6520;DHT22;3293;51.690;5.982;2022-12-16T01:50:32;-2.20;99.90
6520;DHT22;3293;51.690;5.982;2022-12-16T01:55:38;-2.20;99.90
6520;DHT22;3293;51.690;5.982;2022-12-16T02:00:40;-2.20;99.90
6520;DHT22;3293;51.690;5.982;2022-12-16T02:05:41;-2.10;99.90
6520;DHT22;3293;51.690;5.982;2022-12-16T02:21:07;-2.00;99.90
6520;DHT22;3293;51.690;5.982;2022-12-16T02:47:06;-1.90;99.90
6520;DHT22;3293;51.690;5.982;2022-12-16T02:52:07;-1.80;99.90
6520;DHT22;3293;51.690;5.982;2022-12-16T02:57:21;-1.80;99.90
6520;DHT22;3293;51.690;5.982;2022-12-16T03:02:35;-1.80;99.90
6520;DHT22;3293;51.690;5.982;2022-12-16T03:07:40;-1.90;99.90
6520;DHT22;3293;51.690;5.982;2022-12-16T03:12:43;-1.70;99.90
6520;DHT22;3293;51.690;5.982;2022-12-16T03:17:44;-1.70;99.90
6520;DHT22;3293;51.690;5.982;2022-12-16T03:22:47;-1.70;99.90
6520;DHT22;3293;51.690;5.982;2022-12-16T03:28:12;-1.70;99.90
6520;DHT22;3293;51.690;5.982;2022-12-16T03:33:38;-1.60;99.90
6520;DHT22;3293;51.690;5.982;2022-12-16T03:38:42;-1.60;99.90
6520;DHT22;3293;51.690;5.982;2022-12-16T03:43:43;-1.50;99.90
6520;DHT22;3293;51.690;5.982;2022-12-16T03:48:45;-1.50;99.90
6520;DHT22;3293;51.690;5.982;2022-12-16T03:53:45;-1.40;99.90
6520;DHT22;3293;51.690;5.982;2022-12-16T03:58:45;-1.50;99.90
6520;DHT22;3293;51.690;5.982;2022-12-16T04:03:45;-1.40;99.90
6520;DHT22;3293;51.690;5.982;2022-12-16T04:08:45;-1.40;99.90
6520;DHT22;3293;51.690;5.982;2022-12-16T04:13:46;-1.50;99.90
6520;DHT22;3293;51.690;5.982;2022-12-16T04:19:05;-1.40;99.90
6520;DHT22;3293;51.690;5.982;2022-12-16T04:24:26;-1.40;99.90
6520;DHT22;3293;51.690;5.982;2022-12-16T04:29:28;-1.40;99.90
6520;DHT22;3293;51.690;5.982;2022-12-16T04:34:28;-1.30;99.90
6520;DHT22;3293;51.690;5.982;2022-12-16T04:39:28;-1.40;99.90
6520;DHT22;3293;51.690;5.982;2022-12-16T04:44:46;-1.40;99.90
6520;DHT22;3293;51.690;5.982;2022-12-16T04:50:19;-1.40;99.90
6520;DHT22;3293;51.690;5.982;2022-12-16T04:55:38;-1.40;99.90
6520;DHT22;3293;51.690;5.982;2022-12-16T05:00:56;-1.40;99.90
6520;DHT22;3293;51.690;5.982;2022-12-16T05:06:15;-1.40;99.90
6520;DHT22;3293;51.690;5.982;2022-12-16T05:11:34;-1.30;99.90
6520;DHT22;3293;51.690;5.982;2022-12-16T05:16:53;-1.30;99.90
6520;DHT22;3293;51.690;5.982;2022-12-16T05:22:12;-1.30;99.90
6520;DHT22;3293;51.690;5.982;2022-12-16T05:27:30;-1.30;99.90
6520;DHT22;3293;51.690;5.982;2022-12-16T05:32:49;-1.30;99.90
6520;DHT22;3293;51.690;5.982;2022-12-16T05:38:07;-1.20;99.90
6520;DHT22;3293;51.690;5.982;2022-12-16T05:43:25;-1.10;99.90
6520;DHT22;3293;51.690;5.982;2022-12-16T05:48:44;-1.10;99.90
6520;DHT22;3293;51.690;5.982;2022-12-16T05:54:02;-1.00;99.90
6520;DHT22;3293;51.690;5.982;2022-12-16T05:59:21;-1.10;99.90
6520;DHT22;3293;51.690;5.982;2022-12-16T06:04:40;-1.10;99.90
6520;DHT22;3293;51.690;5.982;2022-12-16T06:09:58;-1.00;99.90
6520;DHT22;3293;51.690;5.982;2022-12-16T06:15:17;-1.10;99.90
6520;DHT22;3293;51.690;5.982;2022-12-16T06:20:35;-1.10;99.90
6520;DHT22;3293;51.690;5.982;2022-12-16T06:25:55;-1.20;99.90
6520;DHT22;3293;51.690;5.982;2022-12-16T06:31:13;-1.10;99.90
6520;DHT22;3293;51.690;5.982;2022-12-16T06:36:32;-1.10;99.90
6520;DHT22;3293;51.690;5.982;2022-12-16T06:41:50;-1.00;99.90
6520;DHT22;3293;51.690;5.982;2022-12-16T06:47:09;-1.00;99.90
6520;DHT22;3293;51.690;5.982;2022-12-16T06:52:28;-1.00;99.90
6520;DHT22;3293;51.690;5.982;2022-12-16T06:57:47;-1.00;99.90
6520;DHT22;3293;51.690;5.982;2022-12-16T07:03:06;-1.10;99.90
6520;DHT22;3293;51.690;5.982;2022-12-16T07:08:24;-1.10;99.90
6520;DHT22;3293;51.690;5.982;2022-12-16T07:13:43;-1.00;99.90
6520;DHT22;3293;51.690;5.982;2022-12-16T07:19:01;-1.00;99.90
6520;DHT22;3293;51.690;5.982;2022-12-16T07:24:19;-1.00;99.90
6520;DHT22;3293;51.690;5.982;2022-12-16T07:29:38;-1.00;99.90
6520;DHT22;3293;51.690;5.982;2022-12-16T07:34:56;-1.00;99.90
6520;DHT22;3293;51.690;5.982;2022-12-16T07:40:15;-0.90;99.90
6520;DHT22;3293;51.690;5.982;2022-12-16T07:45:33;-0.80;99.90
6520;DHT22;3293;51.690;5.982;2022-12-16T07:50:51;-0.70;99.90
6520;DHT22;3293;51.690;5.982;2022-12-16T07:56:10;-0.70;99.90
6520;DHT22;3293;51.690;5.982;2022-12-16T08:01:29;-0.70;99.90
6520;DHT22;3293;51.690;5.982;2022-12-16T08:06:48;-0.70;99.90
6520;DHT22;3293;51.690;5.982;2022-12-16T08:12:06;-0.60;99.90
6520;DHT22;3293;51.690;5.982;2022-12-16T08:17:25;-0.60;99.90
6520;DHT22;3293;51.690;5.982;2022-12-16T08:22:43;-0.60;99.90
6520;DHT22;3293;51.690;5.982;2022-12-16T08:28:02;-0.50;99.90
6520;DHT22;3293;51.690;5.982;2022-12-16T08:33:20;-0.50;99.90
6520;DHT22;3293;51.690;5.982;2022-12-16T08:38:43;-0.50;99.90
6520;DHT22;3293;51.690;5.982;2022-12-16T08:44:02;-0.40;99.90
6520;DHT22;3293;51.690;5.982;2022-12-16T08:49:21;-0.40;99.90
6520;DHT22;3293;51.690;5.982;2022-12-16T08:54:39;-0.40;99.90
6520;DHT22;3293;51.690;5.982;2022-12-16T08:59:58;-0.50;99.90
6520;DHT22;3293;51.690;5.982;2022-12-16T09:05:16;-0.40;99.90
6520;DHT22;3293;51.690;5.982;2022-12-16T09:10:34;-0.30;99.90
6520;DHT22;3293;51.690;5.982;2022-12-16T09:15:53;-0.20;99.90
6520;DHT22;3293;51.690;5.982;2022-12-16T09:21:11;-0.30;99.90
6520;DHT22;3293;51.690;5.982;2022-12-16T09:26:30;-0.20;99.90
6520;DHT22;3293;51.690;5.982;2022-12-16T09:31:48;-0.10;99.90
6520;DHT22;3293;51.690;5.982;2022-12-16T09:37:07;0.10;99.90
6520;DHT22;3293;51.690;5.982;2022-12-16T09:48:11;0.40;99.90
6520;DHT22;3293;51.690;5.982;2022-12-16T09:53:34;0.50;99.90
6520;DHT22;3293;51.690;5.982;2022-12-16T09:58:59;0.60;99.90
6520;DHT22;3293;51.690;5.982;2022-12-16T10:04:18;0.70;99.90
6520;DHT22;3293;51.690;5.982;2022-12-16T10:09:56;0.70;99.90
6520;DHT22;3293;51.690;5.982;2022-12-16T10:20:48;0.80;99.90
6520;DHT22;3293;51.690;5.982;2022-12-16T10:26:41;0.80;99.90
6520;DHT22;3293;51.690;5.982;2022-12-16T10:31:59;0.60;99.90
6520;DHT22;3293;51.690;5.982;2022-12-16T10:37:38;0.60;99.90
6520;DHT22;3293;51.690;5.982;2022-12-16T10:43:04;0.70;99.90
6520;DHT22;3293;51.690;5.982;2022-12-16T10:48:29;0.60;99.90
6520;DHT22;3293;51.690;5.982;2022-12-16T10:53:49;0.60;99.90
6520;DHT22;3293;51.690;5.982;2022-12-16T10:59:08;0.70;99.90
6520;DHT22;3293;51.690;5.982;2022-12-16T11:04:35;1.00;99.90
6520;DHT22;3293;51.690;5.982;2022-12-16T11:09:54;1.10;99.90
6520;DHT22;3293;51.690;5.982;2022-12-16T11:15:25;1.30;99.90
6520;DHT22;3293;51.690;5.982;2022-12-16T11:20:45;1.30;99.90
6520;DHT22;3293;51.690;5.982;2022-12-16T11:26:05;1.60;99.90
6520;DHT22;3293;51.690;5.982;2022-12-16T11:31:23;1.40;99.90
6520;DHT22;3293;51.690;5.982;2022-12-16T11:36:43;1.10;99.90
6520;DHT22;3293;51.690;5.982;2022-12-16T11:42:03;1.10;99.90
6520;DHT22;3293;51.690;5.982;2022-12-16T11:52:52;0.70;99.90
6520;DHT22;3293;51.690;5.982;2022-12-16T11:58:30;0.70;99.90
6520;DHT22;3293;51.690;5.982;2022-12-16T12:03:51;1.00;99.90
6520;DHT22;3293;51.690;5.982;2022-12-16T12:09:14;1.30;99.90
6520;DHT22;3293;51.690;5.982;2022-12-16T12:14:45;1.30;99.90
6520;DHT22;3293;51.690;5.982;2022-12-16T12:25:46;1.10;99.90
6520;DHT22;3293;51.690;5.982;2022-12-16T12:31:19;1.30;99.90
6520;DHT22;3293;51.690;5.982;2022-12-16T12:36:49;1.20;99.90
6520;DHT22;3293;51.690;5.982;2022-12-16T12:42:36;1.30;99.90
6520;DHT22;3293;51.690;5.982;2022-12-16T12:59:12;1.30;99.90
6520;DHT22;3293;51.690;5.982;2022-12-16T13:04:34;0.90;99.90
6520;DHT22;3293;51.690;5.982;2022-12-16T13:10:12;1.00;99.90
6520;DHT22;3293;51.690;5.982;2022-12-16T13:15:35;1.20;99.90
6520;DHT22;3293;51.690;5.982;2022-12-16T13:20:56;1.30;99.90
6520;DHT22;3293;51.690;5.982;2022-12-16T13:26:18;1.30;99.90
6520;DHT22;3293;51.690;5.982;2022-12-16T13:32:14;1.30;99.90
6520;DHT22;3293;51.690;5.982;2022-12-16T13:37:33;1.50;99.90
6520;DHT22;3293;51.690;5.982;2022-12-16T13:42:53;1.60;99.90
6520;DHT22;3293;51.690;5.982;2022-12-16T13:53:48;1.50;99.90
6520;DHT22;3293;51.690;5.982;2022-12-16T13:59:35;1.50;99.90
6520;DHT22;3293;51.690;5.982;2022-12-16T14:04:54;1.30;99.90
6520;DHT22;3293;51.690;5.982;2022-12-16T14:21:16;1.50;99.90
6520;DHT22;3293;51.690;5.982;2022-12-16T14:26:36;1.40;99.90
6520;DHT22;3293;51.690;5.982;2022-12-16T14:31:55;1.30;99.90
6520;DHT22;3293;51.690;5.982;2022-12-16T14:37:14;1.40;99.90
6520;DHT22;3293;51.690;5.982;2022-12-16T14:42:33;1.40;99.90
6520;DHT22;3293;51.690;5.982;2022-12-16T14:47:52;1.30;99.90
6520;DHT22;3293;51.690;5.982;2022-12-16T14:53:22;1.30;99.90
6520;DHT22;3293;51.690;5.982;2022-12-16T14:58:40;1.20;99.90
6520;DHT22;3293;51.690;5.982;2022-12-16T15:03:59;1.20;99.90
6520;DHT22;3293;51.690;5.982;2022-12-16T15:14:44;1.30;99.90
6520;DHT22;3293;51.690;5.982;2022-12-16T15:20:03;1.40;99.90
6520;DHT22;3293;51.690;5.982;2022-12-16T15:25:26;1.30;99.90
6520;DHT22;3293;51.690;5.982;2022-12-16T15:30:46;1.20;99.90
6520;DHT22;3293;51.690;5.982;2022-12-16T15:36:05;1.20;99.90
6520;DHT22;3293;51.690;5.982;2022-12-16T15:41:32;1.20;99.90
6520;DHT22;3293;51.690;5.982;2022-12-16T15:46:52;1.10;99.90
6520;DHT22;3293;51.690;5.982;2022-12-16T15:58:00;1.10;99.90
6520;DHT22;3293;51.690;5.982;2022-12-16T16:08:40;1.20;99.90
6520;DHT22;3293;51.690;5.982;2022-12-16T16:13:59;1.20;99.90
6520;DHT22;3293;51.690;5.982;2022-12-16T16:19:21;1.20;99.90
6520;DHT22;3293;51.690;5.982;2022-12-16T16:24:40;1.10;99.90
6520;DHT22;3293;51.690;5.982;2022-12-16T16:29:59;1.10;99.90
6520;DHT22;3293;51.690;5.982;2022-12-16T16:35:18;1.10;99.90
6520;DHT22;3293;51.690;5.982;2022-12-16T16:40:38;1.00;99.90
6520;DHT22;3293;51.690;5.982;2022-12-16T16:45:57;1.00;99.90
6520;DHT22;3293;51.690;5.982;2022-12-16T16:51:16;1.00;99.90
6520;DHT22;3293;51.690;5.982;2022-12-16T16:56:35;1.10;99.90
6520;DHT22;3293;51.690;5.982;2022-12-16T17:01:54;1.00;99.90
6520;DHT22;3293;51.690;5.982;2022-12-16T17:07:13;1.00;99.90
6520;DHT22;3293;51.690;5.982;2022-12-16T17:12:32;1.00;99.90
6520;DHT22;3293;51.690;5.982;2022-12-16T17:17:50;0.90;99.90
6520;DHT22;3293;51.690;5.982;2022-12-16T17:23:08;1.00;99.90
6520;DHT22;3293;51.690;5.982;2022-12-16T17:28:27;0.90;99.90
6520;DHT22;3293;51.690;5.982;2022-12-16T17:33:45;1.00;99.90
6520;DHT22;3293;51.690;5.982;2022-12-16T17:39:04;1.00;99.90
6520;DHT22;3293;51.690;5.982;2022-12-16T17:44:23;1.10;99.90
6520;DHT22;3293;51.690;5.982;2022-12-16T17:49:41;1.10;99.90
6520;DHT22;3293;51.690;5.982;2022-12-16T17:55:00;1.10;99.90
6520;DHT22;3293;51.690;5.982;2022-12-16T18:00:19;1.00;99.90
6520;DHT22;3293;51.690;5.982;2022-12-16T18:05:37;1.00;99.90
6520;DHT22;3293;51.690;5.982;2022-12-16T18:10:57;1.00;99.90
6520;DHT22;3293;51.690;5.982;2022-12-16T18:16:15;1.10;99.90
6520;DHT22;3293;51.690;5.982;2022-12-16T18:21:34;1.10;99.90
6520;DHT22;3293;51.690;5.982;2022-12-16T18:26:52;1.10;99.90
6520;DHT22;3293;51.690;5.982;2022-12-16T18:32:11;1.00;99.90
6520;DHT22;3293;51.690;5.982;2022-12-16T18:37:29;1.10;99.90
6520;DHT22;3293;51.690;5.982;2022-12-16T18:42:48;1.10;99.90
6520;DHT22;3293;51.690;5.982;2022-12-16T18:48:06;1.10;99.90
6520;DHT22;3293;51.690;5.982;2022-12-16T18:53:25;1.10;99.90
6520;DHT22;3293;51.690;5.982;2022-12-16T18:58:43;1.10;99.90
6520;DHT22;3293;51.690;5.982;2022-12-16T19:04:02;1.00;99.90
6520;DHT22;3293;51.690;5.982;2022-12-16T19:09:20;1.00;99.90
6520;DHT22;3293;51.690;5.982;2022-12-16T19:14:38;1.00;99.90
6520;DHT22;3293;51.690;5.982;2022-12-16T19:19:57;1.00;99.90
6520;DHT22;3293;51.690;5.982;2022-12-16T19:25:16;1.00;99.90
6520;DHT22;3293;51.690;5.982;2022-12-16T19:30:34;1.00;99.90
6520;DHT22;3293;51.690;5.982;2022-12-16T19:35:55;1.00;99.90
6520;DHT22;3293;51.690;5.982;2022-12-16T19:41:15;1.00;99.90
6520;DHT22;3293;51.690;5.982;2022-12-16T19:46:35;1.00;99.90
6520;DHT22;3293;51.690;5.982;2022-12-16T19:51:53;1.00;99.90
6520;DHT22;3293;51.690;5.982;2022-12-16T19:57:12;1.00;99.90
6520;DHT22;3293;51.690;5.982;2022-12-16T20:02:30;0.90;99.90
6520;DHT22;3293;51.690;5.982;2022-12-16T20:07:49;0.80;99.90
6520;DHT22;3293;51.690;5.982;2022-12-16T20:13:09;0.80;99.90
6520;DHT22;3293;51.690;5.982;2022-12-16T20:18:28;0.80;99.90
6520;DHT22;3293;51.690;5.982;2022-12-16T20:23:47;0.80;99.90
6520;DHT22;3293;51.690;5.982;2022-12-16T20:29:05;0.90;99.90
6520;DHT22;3293;51.690;5.982;2022-12-16T20:34:23;0.90;99.90
6520;DHT22;3293;51.690;5.982;2022-12-16T20:39:42;1.00;99.90
6520;DHT22;3293;51.690;5.982;2022-12-16T20:45:01;0.90;99.90
6520;DHT22;3293;51.690;5.982;2022-12-16T20:50:20;0.90;99.90
6520;DHT22;3293;51.690;5.982;2022-12-16T20:55:38;0.90;99.90
6520;DHT22;3293;51.690;5.982;2022-12-16T21:00:57;0.90;99.90
6520;DHT22;3293;51.690;5.982;2022-12-16T21:06:15;0.90;99.90
6520;DHT22;3293;51.690;5.982;2022-12-16T21:11:34;0.90;99.90
6520;DHT22;3293;51.690;5.982;2022-12-16T21:16:52;0.80;99.90
6520;DHT22;3293;51.690;5.982;2022-12-16T21:22:11;0.80;99.90
6520;DHT22;3293;51.690;5.982;2022-12-16T21:27:30;0.80;99.90
6520;DHT22;3293;51.690;5.982;2022-12-16T21:32:49;0.80;99.90
6520;DHT22;3293;51.690;5.982;2022-12-16T21:38:10;0.80;99.90
6520;DHT22;3293;51.690;5.982;2022-12-16T21:43:28;0.70;99.90
6520;DHT22;3293;51.690;5.982;2022-12-16T21:48:47;0.70;99.90
6520;DHT22;3293;51.690;5.982;2022-12-16T21:54:05;0.70;99.90
6520;DHT22;3293;51.690;5.982;2022-12-16T21:59:23;0.70;99.90
6520;DHT22;3293;51.690;5.982;2022-12-16T22:04:42;0.70;99.90
6520;DHT22;3293;51.690;5.982;2022-12-16T22:10:01;0.70;99.90
6520;DHT22;3293;51.690;5.982;2022-12-16T22:15:19;0.70;99.90
6520;DHT22;3293;51.690;5.982;2022-12-16T22:20:38;0.60;99.90
6520;DHT22;3293;51.690;5.982;2022-12-16T22:25:57;0.60;99.90
6520;DHT22;3293;51.690;5.982;2022-12-16T22:31:16;0.60;99.90
6520;DHT22;3293;51.690;5.982;2022-12-16T22:36:35;0.70;99.90
6520;DHT22;3293;51.690;5.982;2022-12-16T22:41:53;0.70;99.90
6520;DHT22;3293;51.690;5.982;2022-12-16T22:47:11;0.60;99.90
6520;DHT22;3293;51.690;5.982;2022-12-16T22:52:30;0.50;99.90
6520;DHT22;3293;51.690;5.982;2022-12-16T22:57:48;0.40;99.90
6520;DHT22;3293;51.690;5.982;2022-12-16T23:03:11;0.30;99.90
6520;DHT22;3293;51.690;5.982;2022-12-16T23:08:32;0.30;99.90
6520;DHT22;3293;51.690;5.982;2022-12-16T23:13:50;0.30;99.90
6520;DHT22;3293;51.690;5.982;2022-12-16T23:19:08;0.20;99.90
6520;DHT22;3293;51.690;5.982;2022-12-16T23:24:27;0.20;99.90
6520;DHT22;3293;51.690;5.982;2022-12-16T23:29:45;0.30;99.90
6520;DHT22;3293;51.690;5.982;2022-12-16T23:35:04;0.30;99.90
6520;DHT22;3293;51.690;5.982;2022-12-16T23:40:22;0.30;99.90
6520;DHT22;3293;51.690;5.982;2022-12-16T23:45:42;0.30;99.90
6520;DHT22;3293;51.690;5.982;2022-12-16T23:51:01;0.30;99.90
6520;DHT22;3293;51.690;5.982;2022-12-16T23:56:19;0.20;99.90
